Flight Track Log - Related Links

Times and Time Zones

All times are in EDT time to prevent confusion due to time zone crossing. See the N313CR flight status page for this flight to view local times or setup timezone preferences in your user account.

Time Position Orientation Groundspeed Altitude Reporting Facility
EDT Latitude Longitude Course Direction KTS MPH feet Rate Location/Type
Thu 06:57:28 AM 40.8833 -74.0500 323° Northwest 198 228 1,600  Level New York TRACON
Thu 06:58:17 AM 40.9167 -74.0833 323° Northwest 244 281 3,800 2,807 Climbing New York TRACON
Thu 06:59:17 AM 40.9167 -74.1833 270° West 262 302 6,700 2,263 Climbing New York TRACON
Thu 07:00:11 AM 40.9000 -74.2833 258° West 289 333 8,100 2,105 Climbing New York TRACON
Thu 07:01:11 AM 40.9167 -74.3667 285° West 277 319 10,700 2,382 Climbing New York TRACON
Thu 07:02:22 AM 40.9689 -74.4508 309° West 283 326 13,300 1,955 Climbing New York Center
Thu 07:03:23 AM 41.0308 -74.5339 315° West 278 320 15,000 1,412 Climbing New York Center
Thu 07:04:21 AM 41.1036 -74.6011 325° Northwest 305 351 16,100 1,008 Climbing New York Center
Thu 07:05:22 AM 41.1703 -74.6683 323° Northwest 330 380 17,000 1,131 Climbing New York Center
Thu 07:06:23 AM 41.2486 -74.7503 322° Northwest 336 387 18,400 1,537 Climbing New York Center
Thu 07:07:23 AM 41.3150 -74.8178 323° Northwest 336 387 20,100 1,897 Climbing New York Center
Thu 07:08:20 AM 41.3878 -74.8856 325° Northwest 336 387 22,100 1,932 Climbing New York Center
Thu 07:09:21 AM 41.4561 -74.9536 323° Northwest 328 377 23,900 1,426 Climbing New York Center
Thu 07:10:22 AM 41.5308 -75.0219 326° Northwest 323 372 25,000 595 Climbing New York Center
Thu 07:11:22 AM 41.5961 -75.1147 313° West 328 377 25,100 446 Climbing New York Center
Thu 07:12:23 AM 41.6225 -75.2469 285° West 341 392 25,900 992 Climbing New York Center
Thu 07:13:23 AM 41.6569 -75.3797 289° West 364 419 27,100 1,109 Climbing New York Center
Thu 07:14:22 AM 41.6872 -75.5122 287° West 369 425 28,100 1,000 Climbing New York Center
Thu 07:15:23 AM 41.7172 -75.6422 287° West 369 425 29,100 1,008 Climbing New York Center
Thu 07:16:21 AM 41.7472 -75.7753 287° West 369 425 30,100 1,008 Climbing New York Center
Thu 07:17:22 AM 41.7789 -75.9083 288° West 369 425 31,100 992 Climbing New York Center
Thu 07:18:22 AM 41.8086 -76.0386 287° West 369 425 32,100 992 Climbing New York Center
Thu 07:19:23 AM 41.8378 -76.1744 286° West 369 425 33,100 1,008 Climbing New York Center
Thu 07:20:21 AM 41.8672 -76.3050 287° West 369 425 34,100 1,059 Climbing New York Center
Thu 07:21:22 AM 41.8967 -76.4356 287° West 369 425 35,200 942 Climbing New York Center
Thu 07:22:22 AM 41.9272 -76.5775 286° West 369 425 36,000 403 Climbing New York Center
Thu 07:23:21 AM 41.9600 -76.7144 288° West 369 425 36,000  Level New York Center
Thu 07:24:47 AM 42.0014 -76.9086 286° West 384 442 36,000  Level Cleveland Center
Thu 07:25:47 AM 42.0328 -77.0494 287° West 389 448 36,000  Level Cleveland Center
Thu 07:26:47 AM 42.0622 -77.1933 285° West 394 453 36,000  Level Cleveland Center
Thu 07:27:47 AM 42.0956 -77.3369 287° West 394 453 36,000  Level Cleveland Center
Thu 07:28:47 AM 42.1267 -77.4811 286° West 394 453 36,000  Level Cleveland Center
Thu 07:29:47 AM 42.1556 -77.6253 285° West 394 453 36,000  Level Cleveland Center
Thu 07:30:47 AM 42.1861 -77.7694 286° West 394 453 36,000  Level Cleveland Center
Thu 07:31:47 AM 42.2167 -77.9086 287° West 394 453 36,000  Level Cleveland Center
Thu 07:32:47 AM 42.2447 -78.0503 285° West 394 453 36,000  Level Cleveland Center
Thu 07:33:47 AM 42.2772 -78.2061 286° West 394 453 36,000  Level Cleveland Center
Thu 07:34:47 AM 42.3072 -78.3511 286° West 394 453 36,000  Level Cleveland Center
Thu 07:35:47 AM 42.3372 -78.4961 286° West 394 453 36,000  Level Cleveland Center
Thu 07:36:47 AM 42.3667 -78.6414 285° West 394 453 36,000  Level Cleveland Center
Thu 07:37:47 AM 42.3942 -78.7811 285° West 394 453 36,000  Level Cleveland Center
Thu 07:38:47 AM 42.4233 -78.9264 285° West 394 453 36,000  Level Cleveland Center
Thu 07:39:47 AM 42.4503 -79.0722 284° West 394 453 36,000  Level Cleveland Center
Thu 07:40:47 AM 42.4814 -79.2178 286° West 394 453 36,000  Level Cleveland Center
Thu 07:41:47 AM 42.4997 -79.3667 280° West 394 453 36,000  Level Cleveland Center
Thu 07:42:47 AM 42.5053 -79.5158 273° West 394 453 36,000  Level Cleveland Center
Thu 07:43:47 AM 42.5108 -79.6650 273° West 389 448 36,000  Level Cleveland Center
Thu 07:44:47 AM 42.5203 -79.8086 275° West 389 448 36,000  Level Cleveland Center
Thu 07:45:47 AM 42.5253 -79.9578 273° West 389 448 36,000  Level Cleveland Center
Thu 07:46:47 AM 42.5300 -80.0931 273° West 394 453 36,000 -200 Level Cleveland Center
Thu 07:47:47 AM 42.5369 -80.2394 274° West 389 448 35,600 -750 Descending Cleveland Center
Thu 07:48:47 AM 42.5414 -80.3803 273° West 389 448 34,500 -1,100 Descending Cleveland Center
Thu 07:49:47 AM 42.5478 -80.5269 273° West 389 448 33,400 -1,100 Descending Cleveland Center
Thu 07:50:47 AM 42.5519 -80.6733 272° West 384 442 32,300 -700 Descending Cleveland Center
Thu 07:51:47 AM 42.5578 -80.8228 273° West 384 442 32,000 -600 Descending Cleveland Center
Thu 07:52:47 AM 42.5658 -80.9864 274° West 389 448 31,100 -1,000 Descending Cleveland Center
Thu 07:53:47 AM 42.5714 -81.1358 273° West 389 448 30,000 -1,100 Descending Cleveland Center
Thu 07:54:47 AM 42.5747 -81.2853 272° West 394 453 28,900 -1,100 Descending Cleveland Center
Thu 07:55:47 AM 42.5800 -81.4403 273° West 407 468 27,800 -1,150 Descending Cleveland Center
Thu 07:56:47 AM 42.6058 -81.5875 283° West 407 468 26,600 -1,150 Descending Cleveland Center
Thu 07:57:47 AM 42.6317 -81.7317 284° West 402 463 25,500 -1,200 Descending Cleveland Center
Thu 07:58:47 AM 42.6533 -81.8536 284° West 389 448 24,200 -1,400 Descending Cleveland Center
Thu 07:59:47 AM 42.6786 -81.9953 284° West 384 442 22,700 -1,500 Descending Cleveland Center
Thu 08:00:47 AM 42.7000 -82.1314 282° West 384 442 21,200 -1,650 Descending Cleveland Center
Thu 08:01:47 AM 42.7231 -82.2647 283° West 374 430 19,400 -1,750 Descending Cleveland Center
Thu 08:02:47 AM 42.7439 -82.3925 283° West 363 418 17,700 -1,700 Descending Cleveland Center
Thu 08:03:47 AM 42.7650 -82.5147 283° West 351 404 16,000 -850 Descending Cleveland Center
Thu 08:04:47 AM 42.7878 -82.6428 284° West 346 398 16,000  Level Cleveland Center

Login

Don't have an account? Register now (free) for customized features, flight alerts, and more!